createdAt,value
2019-03-18T00:00:39.740Z,99.90
2019-03-18T00:03:09.178Z,99.90
2019-03-18T00:05:38.051Z,99.90
2019-03-18T00:08:06.996Z,99.90
2019-03-18T00:10:36.166Z,99.90
2019-03-18T00:13:05.629Z,99.90
2019-03-18T00:15:34.568Z,99.90
2019-03-18T00:18:03.349Z,99.90
2019-03-18T00:20:32.379Z,99.90
2019-03-18T00:23:01.484Z,99.90
2019-03-18T00:25:30.362Z,99.90
2019-03-18T00:27:59.135Z,99.90
2019-03-18T00:30:28.367Z,99.90
2019-03-18T00:32:57.552Z,99.90
2019-03-18T00:35:26.396Z,99.90
2019-03-18T00:37:55.638Z,99.90
2019-03-18T00:40:24.821Z,99.90
2019-03-18T00:42:53.608Z,99.90
2019-03-18T00:45:22.454Z,99.90
2019-03-18T00:47:51.654Z,99.90
2019-03-18T00:50:20.613Z,99.90
2019-03-18T00:52:49.521Z,99.90
2019-03-18T00:55:18.454Z,99.90
2019-03-18T00:57:47.239Z,99.90
2019-03-18T01:00:16.197Z,99.90
2019-03-18T01:02:45.108Z,99.90
2019-03-18T01:05:14.429Z,99.90
2019-03-18T01:07:43.761Z,99.90
2019-03-18T01:10:12.608Z,99.90
2019-03-18T01:12:41.785Z,99.90
2019-03-18T01:15:11.013Z,99.90
2019-03-18T01:17:39.862Z,99.90
2019-03-18T01:20:08.884Z,99.90
2019-03-18T01:22:37.781Z,99.90
2019-03-18T01:25:07.105Z,99.90
2019-03-18T01:27:36.193Z,99.90
2019-03-18T01:30:05.877Z,99.90
2019-03-18T01:32:35.236Z,99.90
2019-03-18T01:35:04.587Z,99.90
2019-03-18T01:37:33.467Z,99.90
2019-03-18T01:40:02.377Z,99.90
2019-03-18T01:42:31.158Z,99.90
2019-03-18T01:45:00.365Z,99.90
2019-03-18T01:47:29.515Z,99.90
2019-03-18T01:49:58.302Z,99.90
2019-03-18T01:52:27.186Z,99.90
2019-03-18T01:54:56.314Z,99.90
2019-03-18T01:57:25.137Z,99.90
2019-03-18T01:59:53.908Z,99.90
2019-03-18T02:02:22.946Z,99.90
2019-03-18T02:04:51.961Z,99.90
2019-03-18T02:07:21.029Z,99.90
2019-03-18T02:09:49.821Z,99.90
2019-03-18T02:12:18.660Z,99.90
2019-03-18T02:14:47.549Z,99.90
2019-03-18T02:17:16.463Z,99.90
2019-03-18T02:19:45.487Z,99.90
2019-03-18T02:22:14.553Z,99.90
2019-03-18T02:24:43.347Z,99.90
2019-03-18T02:27:12.673Z,99.90
2019-03-18T02:29:41.749Z,99.90
2019-03-18T02:32:10.611Z,99.90
2019-03-18T02:34:39.461Z,99.90
2019-03-18T02:37:08.310Z,99.90
2019-03-18T02:39:37.401Z,99.90
2019-03-18T02:42:06.173Z,99.90
2019-03-18T02:44:34.983Z,99.90
2019-03-18T02:47:03.750Z,99.90
2019-03-18T02:49:32.770Z,99.90
2019-03-18T02:52:01.576Z,99.90
2019-03-18T02:54:30.431Z,99.90
2019-03-18T02:56:59.235Z,99.90
2019-03-18T02:59:28.047Z,99.90
2019-03-18T03:01:56.824Z,99.90
2019-03-18T03:04:26.034Z,99.90
2019-03-18T03:06:54.883Z,99.90
2019-03-18T03:09:23.666Z,99.90
2019-03-18T03:11:52.559Z,99.90
2019-03-18T03:14:21.340Z,99.90
2019-03-18T03:16:50.360Z,99.90
2019-03-18T03:19:19.441Z,99.90
2019-03-18T03:21:48.615Z,99.90
2019-03-18T03:24:17.386Z,99.90
2019-03-18T03:26:46.273Z,99.90
2019-03-18T03:29:15.465Z,99.90
2019-03-18T03:31:44.245Z,99.90
2019-03-18T03:34:14.429Z,99.90
2019-03-18T03:36:43.508Z,99.90
2019-03-18T03:39:12.612Z,99.90
2019-03-18T03:41:41.666Z,99.90
2019-03-18T03:44:10.844Z,99.90
2019-03-18T03:46:43.592Z,99.90
2019-03-18T03:49:10.221Z,99.90
2019-03-18T03:51:39.001Z,99.90
2019-03-18T03:54:08.465Z,99.90
2019-03-18T03:56:37.386Z,99.90
2019-03-18T03:59:06.457Z,99.90
2019-03-18T04:01:35.337Z,99.90
2019-03-18T04:04:04.254Z,99.90
2019-03-18T04:06:33.233Z,99.90
2019-03-18T04:11:30.437Z,99.90
2019-03-18T04:13:59.588Z,99.90
2019-03-18T04:16:28.375Z,99.90
2019-03-18T04:18:57.225Z,99.90
2019-03-18T04:21:26.284Z,99.90
2019-03-18T04:23:55.494Z,99.90
2019-03-18T04:26:24.600Z,99.90
2019-03-18T04:28:53.453Z,99.90
2019-03-18T04:31:22.516Z,99.70
2019-03-18T04:33:51.304Z,99.60
2019-03-18T04:36:20.332Z,99.30
2019-03-18T04:38:49.117Z,99.10
2019-03-18T04:41:18.242Z,99.00
2019-03-18T04:43:47.104Z,98.50
2019-03-18T04:46:15.961Z,98.60
2019-03-18T04:48:44.812Z,98.00
2019-03-18T04:51:13.585Z,98.10
2019-03-18T04:53:42.429Z,98.10
2019-03-18T04:56:11.582Z,98.20
2019-03-18T04:58:40.411Z,98.30
2019-03-18T05:01:09.585Z,98.50
2019-03-18T05:03:38.365Z,98.60
2019-03-18T05:06:07.597Z,98.70
2019-03-18T05:08:36.394Z,98.90
2019-03-18T05:11:05.245Z,99.10
2019-03-18T05:13:34.194Z,99.10
2019-03-18T05:16:03.005Z,99.10
2019-03-18T05:18:31.789Z,99.10
2019-03-18T05:21:00.580Z,99.70
2019-03-18T05:23:29.365Z,99.70
2019-03-18T05:25:58.174Z,99.90
2019-03-18T05:28:27.117Z,99.90
2019-03-18T05:30:56.050Z,99.90
2019-03-18T05:33:25.191Z,99.90
2019-03-18T05:35:54.018Z,99.90
2019-03-18T05:38:23.169Z,99.90
2019-03-18T05:40:52.638Z,99.90
2019-03-18T05:43:21.533Z,99.90
2019-03-18T05:45:50.609Z,99.90
2019-03-18T05:48:19.486Z,99.90
2019-03-18T05:50:48.261Z,99.90
2019-03-18T05:53:17.176Z,99.90
2019-03-18T05:55:46.046Z,99.90
2019-03-18T05:58:14.837Z,99.90
2019-03-18T06:00:43.612Z,99.90
2019-03-18T06:03:12.492Z,99.90
2019-03-18T06:05:41.364Z,99.90
2019-03-18T06:08:11.818Z,99.90
2019-03-18T06:10:40.842Z,99.80
2019-03-18T06:13:09.705Z,99.40
2019-03-18T06:15:38.480Z,99.40
2019-03-18T06:18:07.817Z,99.30
2019-03-18T06:20:37.008Z,99.40
2019-03-18T06:23:05.928Z,99.60
2019-03-18T06:25:34.756Z,99.90
2019-03-18T06:28:03.669Z,99.90
2019-03-18T06:30:32.442Z,99.90
2019-03-18T06:33:01.237Z,99.50
2019-03-18T06:35:30.101Z,99.00
2019-03-18T06:37:58.966Z,97.90
2019-03-18T06:40:27.772Z,98.20
2019-03-18T06:42:56.566Z,97.70
2019-03-18T06:45:25.998Z,96.50
2019-03-18T06:48:04.199Z,96.40
2019-03-18T06:50:25.519Z,95.60
2019-03-18T06:52:54.369Z,95.30
2019-03-18T06:55:23.182Z,94.70
2019-03-18T06:57:52.028Z,95.00
2019-03-18T07:00:21.097Z,94.00
2019-03-18T07:02:50.333Z,93.70
2019-03-18T07:05:19.280Z,93.70
2019-03-18T07:07:48.133Z,93.90
2019-03-18T07:10:17.001Z,93.40
2019-03-18T07:12:45.905Z,93.70
2019-03-18T07:15:14.749Z,93.60
2019-03-18T07:17:44.146Z,93.20
2019-03-18T07:20:13.385Z,93.70
2019-03-18T07:22:42.344Z,93.20
2019-03-18T07:25:11.314Z,92.90
2019-03-18T07:27:40.188Z,92.90
2019-03-18T07:30:09.406Z,92.90
2019-03-18T07:32:38.565Z,92.80
2019-03-18T07:35:07.499Z,92.90
2019-03-18T07:37:36.672Z,91.30
2019-03-18T07:40:06.433Z,89.80
2019-03-18T07:42:35.336Z,88.20
2019-03-18T07:45:05.493Z,87.90
2019-03-18T07:47:34.632Z,88.00
2019-03-18T07:50:03.732Z,88.10
2019-03-18T07:52:32.632Z,87.90
2019-03-18T07:55:01.452Z,84.50
2019-03-18T07:57:32.744Z,82.60
2019-03-18T08:00:01.242Z,80.10
2019-03-18T08:02:30.430Z,80.30
2019-03-18T08:04:59.934Z,76.70
2019-03-18T08:07:28.712Z,75.70
2019-03-18T08:09:57.891Z,74.40
2019-03-18T08:12:27.115Z,75.50
2019-03-18T08:14:56.027Z,74.40
2019-03-18T08:17:24.836Z,76.60
2019-03-18T08:19:54.097Z,76.30
2019-03-18T08:22:22.897Z,78.60
2019-03-18T08:24:52.053Z,81.10
2019-03-18T08:27:20.838Z,81.90
2019-03-18T08:29:49.636Z,82.20
2019-03-18T08:32:18.526Z,82.70
2019-03-18T08:34:47.329Z,78.80
2019-03-18T08:37:16.539Z,78.00
2019-03-18T08:39:45.373Z,79.50
2019-03-18T08:42:14.411Z,80.30
2019-03-18T08:44:43.197Z,79.90
2019-03-18T08:47:12.049Z,78.90
2019-03-18T08:49:41.140Z,80.00
2019-03-18T08:52:09.919Z,77.30
2019-03-18T08:54:38.771Z,73.60
2019-03-18T08:57:07.910Z,71.10
2019-03-18T08:59:36.685Z,71.30
2019-03-18T09:02:05.543Z,69.70
2019-03-18T09:04:34.699Z,68.50
2019-03-18T09:07:03.478Z,63.90
2019-03-18T09:09:32.663Z,64.60
2019-03-18T09:12:01.970Z,67.00
2019-03-18T09:14:30.769Z,66.80
2019-03-18T09:16:59.821Z,66.70
2019-03-18T09:19:28.748Z,64.10
2019-03-18T09:21:57.657Z,64.60
2019-03-18T09:24:27.116Z,65.10
2019-03-18T09:27:02.448Z,67.30
2019-03-18T09:29:26.513Z,68.70
2019-03-18T09:31:55.296Z,70.40
2019-03-18T09:34:24.078Z,69.90
2019-03-18T09:36:53.189Z,68.00
2019-03-18T09:39:22.237Z,65.20
2019-03-18T09:41:51.008Z,64.30
2019-03-18T09:44:19.880Z,65.90
2019-03-18T09:46:48.745Z,66.90
2019-03-18T09:49:22.013Z,65.40
2019-03-18T09:51:48.664Z,66.20
2019-03-18T09:54:17.432Z,69.60
2019-03-18T09:56:46.488Z,76.20
2019-03-18T09:59:15.551Z,80.90
2019-03-18T10:01:44.615Z,85.80
2019-03-18T10:04:13.556Z,87.60
2019-03-18T10:06:42.722Z,86.90
2019-03-18T10:09:11.710Z,85.40
2019-03-18T10:11:40.798Z,84.40
2019-03-18T10:14:09.770Z,83.30
2019-03-18T10:16:38.534Z,78.70
2019-03-18T10:19:07.694Z,77.20
2019-03-18T10:21:36.760Z,75.40
2019-03-18T10:24:05.837Z,76.90
2019-03-18T10:26:35.049Z,77.40
2019-03-18T10:29:03.876Z,78.40
2019-03-18T10:31:32.703Z,79.70
2019-03-18T10:34:01.529Z,79.10
2019-03-18T10:36:30.409Z,80.50
2019-03-18T10:38:59.243Z,78.20
2019-03-18T10:41:28.020Z,76.60
2019-03-18T10:43:56.873Z,73.00
2019-03-18T10:46:26.447Z,71.80
2019-03-18T10:48:55.480Z,72.10
2019-03-18T10:51:25.069Z,69.40
2019-03-18T10:53:54.297Z,67.50
2019-03-18T10:56:23.442Z,66.70
2019-03-18T10:58:52.264Z,68.70
2019-03-18T11:01:21.804Z,67.70
2019-03-18T11:03:50.930Z,66.40
2019-03-18T11:06:19.804Z,65.60
2019-03-18T11:08:48.669Z,67.60
2019-03-18T11:11:17.808Z,68.50
2019-03-18T11:13:46.903Z,68.00
2019-03-18T11:16:15.996Z,67.90
2019-03-18T11:18:44.796Z,68.30
2019-03-18T11:21:13.594Z,67.40
2019-03-18T11:23:42.377Z,67.20
2019-03-18T11:26:11.463Z,63.70
2019-03-18T11:28:40.240Z,63.20
2019-03-18T11:31:09.042Z,63.60
2019-03-18T11:33:37.810Z,65.10
2019-03-18T11:36:06.657Z,67.70
2019-03-18T11:38:35.576Z,70.00
2019-03-18T11:41:05.000Z,68.00
2019-03-18T11:43:35.796Z,67.80
2019-03-18T11:46:05.026Z,66.90
2019-03-18T11:48:33.911Z,64.40
2019-03-18T11:51:03.005Z,62.60
2019-03-18T11:53:32.069Z,61.10
2019-03-18T11:56:01.011Z,59.30
2019-03-18T11:58:29.789Z,55.30
2019-03-18T12:00:58.988Z,52.10
2019-03-18T12:03:27.916Z,52.90
2019-03-18T12:05:56.712Z,52.90
2019-03-18T12:08:25.852Z,51.10
2019-03-18T12:10:54.712Z,51.90
2019-03-18T12:13:23.576Z,51.50
2019-03-18T12:15:52.518Z,53.00
2019-03-18T12:18:21.340Z,50.80
2019-03-18T12:20:50.840Z,50.20
2019-03-18T12:23:19.695Z,48.60
2019-03-18T12:25:48.491Z,47.60
2019-03-18T12:28:17.253Z,47.60
2019-03-18T12:30:46.626Z,47.40
2019-03-18T12:33:15.412Z,46.00
2019-03-18T12:35:44.396Z,48.20
2019-03-18T12:38:13.668Z,48.10
2019-03-18T12:43:11.204Z,49.40
2019-03-18T12:45:40.133Z,51.60
2019-03-18T12:48:09.013Z,52.60
2019-03-18T12:50:54.346Z,52.20
2019-03-18T12:53:08.305Z,53.80
2019-03-18T12:55:37.204Z,53.30
2019-03-18T12:58:06.494Z,54.70
2019-03-18T13:00:35.437Z,54.90
2019-03-18T13:03:04.882Z,54.50
2019-03-18T13:05:33.670Z,54.80
2019-03-18T13:08:03.174Z,55.20
2019-03-18T13:10:31.972Z,54.70
2019-03-18T13:13:00.912Z,54.10
2019-03-18T13:15:29.697Z,54.50
2019-03-18T13:17:58.721Z,54.80
2019-03-18T13:20:27.687Z,57.00
2019-03-18T13:22:56.572Z,57.60
2019-03-18T13:25:25.539Z,57.50
2019-03-18T13:27:54.397Z,57.90
2019-03-18T13:30:23.637Z,56.00
2019-03-18T13:32:52.476Z,56.00
2019-03-18T13:35:21.460Z,56.50
2019-03-18T13:37:50.657Z,57.00
2019-03-18T13:40:20.335Z,54.80
2019-03-18T13:42:49.825Z,55.10
2019-03-18T13:45:18.629Z,54.20
2019-03-18T13:47:47.907Z,54.10
2019-03-18T13:50:16.841Z,54.50
2019-03-18T13:52:45.664Z,55.50
2019-03-18T13:55:14.448Z,56.40
2019-03-18T13:57:43.636Z,57.10
2019-03-18T14:00:14.340Z,57.80
2019-03-18T14:02:43.575Z,59.20
2019-03-18T14:05:12.743Z,58.90
2019-03-18T14:07:41.684Z,60.20
2019-03-18T14:10:12.257Z,59.20
2019-03-18T14:12:41.364Z,57.50
2019-03-18T14:15:12.357Z,56.90
2019-03-18T14:17:41.236Z,56.00
2019-03-18T14:20:11.205Z,56.30
2019-03-18T14:22:40.088Z,56.80
2019-03-18T14:25:09.137Z,56.30
2019-03-18T14:27:37.988Z,58.80
2019-03-18T14:30:10.614Z,59.60
2019-03-18T14:32:39.573Z,62.50
2019-03-18T14:35:08.745Z,66.80
2019-03-18T14:37:37.669Z,69.30
2019-03-18T14:40:07.803Z,74.70
2019-03-18T14:42:36.636Z,78.00
2019-03-18T14:45:06.349Z,82.40
2019-03-18T14:47:35.518Z,86.30
2019-03-18T14:50:05.213Z,85.80
2019-03-18T14:52:33.999Z,86.70
2019-03-18T14:55:02.824Z,84.30
2019-03-18T14:57:31.621Z,85.60
2019-03-18T15:00:00.437Z,85.10
2019-03-18T15:02:29.405Z,85.20
2019-03-18T15:04:58.395Z,83.50
2019-03-18T15:07:27.223Z,85.00
2019-03-18T15:09:56.372Z,84.70
2019-03-18T15:12:25.144Z,88.20
2019-03-18T15:14:53.989Z,90.50
2019-03-18T15:17:22.758Z,91.80
2019-03-18T15:19:51.655Z,93.20
2019-03-18T15:22:20.499Z,93.00
2019-03-18T15:24:49.281Z,93.10
2019-03-18T15:27:18.053Z,91.70
2019-03-18T15:29:47.479Z,91.30
2019-03-18T15:32:16.254Z,91.30
2019-03-18T15:34:45.045Z,92.30
2019-03-18T15:37:13.828Z,92.60
2019-03-18T15:39:42.625Z,92.80
2019-03-18T15:42:11.662Z,92.90
2019-03-18T15:44:40.736Z,91.70
2019-03-18T15:47:09.587Z,91.70
2019-03-18T15:49:42.720Z,91.00
2019-03-18T15:52:19.057Z,90.90
2019-03-18T15:54:53.728Z,91.00
2019-03-18T15:57:29.255Z,91.50
2019-03-18T15:59:49.776Z,91.90
2019-03-18T16:02:18.770Z,92.90
2019-03-18T16:04:47.845Z,92.60
2019-03-18T16:07:16.937Z,92.80
2019-03-18T16:09:45.847Z,92.70
2019-03-18T16:12:14.991Z,92.70
2019-03-18T16:14:43.880Z,92.60
2019-03-18T16:17:12.754Z,92.50
2019-03-18T16:19:41.567Z,92.80
2019-03-18T16:22:22.752Z,93.00
2019-03-18T16:24:40.954Z,92.90
2019-03-18T16:27:10.265Z,92.30
2019-03-18T16:29:39.429Z,91.70
2019-03-18T16:32:11.665Z,91.60
2019-03-18T16:34:39.074Z,91.60
2019-03-18T16:37:08.192Z,91.80
2019-03-18T16:39:37.069Z,92.70
2019-03-18T16:42:06.059Z,93.00
2019-03-18T16:44:34.928Z,94.30
2019-03-18T16:47:03.900Z,95.20
2019-03-18T16:49:32.772Z,97.10
2019-03-18T16:52:01.829Z,97.10
2019-03-18T16:54:30.606Z,97.70
2019-03-18T16:56:59.480Z,98.40
2019-03-18T16:59:28.253Z,99.00
2019-03-18T17:01:57.385Z,99.20
2019-03-18T17:04:26.220Z,99.00
2019-03-18T17:06:55.290Z,99.40
2019-03-18T17:09:24.122Z,99.70
2019-03-18T17:11:52.906Z,99.90
2019-03-18T17:14:21.804Z,99.90
2019-03-18T17:16:50.569Z,99.90
2019-03-18T17:19:19.608Z,99.90
2019-03-18T17:21:48.470Z,99.90
2019-03-18T17:24:17.645Z,99.90
2019-03-18T17:26:46.416Z,99.90
2019-03-18T17:29:15.210Z,99.90
2019-03-18T17:31:43.999Z,99.90
2019-03-18T17:34:13.088Z,99.90
2019-03-18T17:36:41.881Z,99.90
2019-03-18T17:39:10.672Z,99.90
2019-03-18T17:41:39.537Z,99.90
2019-03-18T17:44:08.759Z,99.90
2019-03-18T17:46:37.528Z,99.90
2019-03-18T17:49:06.657Z,99.90
2019-03-18T17:51:35.481Z,99.90
2019-03-18T17:54:04.675Z,99.90
2019-03-18T17:56:33.529Z,99.90
2019-03-18T17:59:03.580Z,99.90
2019-03-18T18:01:32.675Z,99.90
2019-03-18T18:04:01.560Z,99.90
2019-03-18T18:06:30.588Z,99.90
2019-03-18T18:08:59.403Z,99.90
2019-03-18T18:11:28.150Z,99.90
2019-03-18T18:13:56.990Z,99.90
2019-03-18T18:16:26.019Z,99.90
2019-03-18T18:18:55.165Z,99.90
2019-03-18T18:21:23.945Z,99.90
2019-03-18T18:23:53.049Z,99.90
2019-03-18T18:26:21.919Z,99.90
2019-03-18T18:28:50.733Z,99.90
2019-03-18T18:31:19.640Z,99.90
2019-03-18T18:33:48.514Z,99.90
2019-03-18T18:36:17.661Z,99.90
2019-03-18T18:38:46.481Z,99.90
2019-03-18T18:41:15.463Z,99.90
2019-03-18T18:43:44.316Z,99.90
2019-03-18T18:46:13.205Z,99.90
2019-03-18T18:48:42.130Z,99.90
2019-03-18T18:51:11.338Z,99.90
2019-03-18T18:53:40.182Z,99.90
2019-03-18T18:56:09.729Z,99.90
2019-03-18T18:58:38.594Z,99.90
2019-03-18T19:01:07.691Z,99.90
2019-03-18T19:03:36.824Z,99.90
2019-03-18T19:06:05.698Z,99.90
2019-03-18T19:08:34.586Z,99.90
2019-03-18T19:11:03.463Z,99.90
2019-03-18T19:13:32.312Z,99.90
2019-03-18T19:16:01.221Z,99.90
2019-03-18T19:18:37.606Z,99.90
2019-03-18T19:21:02.075Z,99.90
2019-03-18T19:23:37.454Z,99.90
2019-03-18T19:26:02.559Z,99.90
2019-03-18T19:28:31.402Z,99.90
2019-03-18T19:31:00.182Z,99.90
2019-03-18T19:33:29.294Z,99.90
2019-03-18T19:35:58.212Z,99.90
2019-03-18T19:38:27.398Z,99.90
2019-03-18T19:40:56.735Z,99.90
2019-03-18T19:43:25.909Z,99.90
2019-03-18T19:45:55.128Z,99.90
2019-03-18T19:48:23.956Z,99.90
2019-03-18T19:50:52.954Z,99.90
2019-03-18T19:53:21.752Z,99.90
2019-03-18T19:55:50.938Z,99.90
2019-03-18T19:58:19.847Z,99.90
2019-03-18T20:00:48.615Z,99.90
2019-03-18T20:03:18.013Z,99.90
2019-03-18T20:05:46.953Z,99.90
2019-03-18T20:08:15.871Z,99.90
2019-03-18T20:10:44.878Z,99.90
2019-03-18T20:13:13.741Z,99.90
2019-03-18T20:15:42.627Z,99.90
2019-03-18T20:18:11.826Z,99.90
2019-03-18T20:20:40.728Z,99.90
2019-03-18T20:23:09.870Z,99.90
2019-03-18T20:25:38.777Z,99.90
2019-03-18T20:28:07.664Z,99.90
2019-03-18T20:30:36.676Z,99.90
2019-03-18T20:33:05.732Z,99.90
2019-03-18T20:35:34.526Z,99.90
2019-03-18T20:38:03.515Z,99.90
2019-03-18T20:40:32.448Z,99.90
2019-03-18T20:43:02.350Z,99.90
2019-03-18T20:45:31.472Z,99.90
2019-03-18T20:48:00.434Z,99.90
2019-03-18T20:50:30.094Z,99.90
2019-03-18T20:52:59.086Z,99.90
2019-03-18T20:55:28.000Z,99.90
2019-03-18T20:57:58.290Z,99.90
2019-03-18T21:00:27.236Z,99.90
2019-03-18T21:02:56.128Z,99.90
2019-03-18T21:05:25.596Z,99.90
2019-03-18T21:07:54.613Z,99.90
2019-03-18T21:10:24.014Z,99.90
2019-03-18T21:12:53.346Z,99.90
2019-03-18T21:15:22.431Z,99.90
2019-03-18T21:17:51.284Z,99.90
2019-03-18T21:20:20.064Z,99.90
2019-03-18T21:22:49.042Z,99.90
2019-03-18T21:25:17.884Z,99.90
2019-03-18T21:27:46.978Z,99.90
2019-03-18T21:30:15.945Z,99.90
2019-03-18T21:32:44.797Z,99.90
2019-03-18T21:35:14.141Z,99.90
2019-03-18T21:37:43.063Z,99.90
2019-03-18T21:40:13.143Z,99.90
2019-03-18T21:42:42.249Z,99.90
2019-03-18T21:45:13.752Z,99.90
2019-03-18T21:47:42.636Z,99.90
2019-03-18T21:50:11.831Z,99.90
2019-03-18T21:52:41.048Z,99.90
2019-03-18T21:55:10.138Z,99.90
2019-03-18T21:57:39.290Z,99.90
2019-03-18T22:00:08.660Z,99.90
2019-03-18T22:02:37.447Z,99.90
2019-03-18T22:05:06.466Z,99.90
2019-03-18T22:07:35.615Z,99.90
2019-03-18T22:10:05.444Z,99.90
2019-03-18T22:12:34.535Z,99.90
2019-03-18T22:15:03.949Z,99.90
2019-03-18T22:17:33.226Z,99.90
2019-03-18T22:20:02.232Z,99.90
2019-03-18T22:22:31.012Z,99.90
2019-03-18T22:24:59.892Z,99.90
2019-03-18T22:27:28.671Z,99.90
2019-03-18T22:29:57.796Z,99.90
2019-03-18T22:32:26.613Z,99.90
2019-03-18T22:34:55.393Z,99.90
2019-03-18T22:37:24.514Z,99.90
2019-03-18T22:39:53.533Z,99.90
2019-03-18T22:42:22.430Z,99.90
2019-03-18T22:44:51.506Z,99.90
2019-03-18T22:47:20.520Z,99.90
2019-03-18T22:49:49.598Z,99.90
2019-03-18T22:52:18.457Z,99.90
2019-03-18T22:54:55.634Z,99.90
2019-03-18T22:57:17.728Z,99.90
2019-03-18T22:59:46.597Z,99.90
2019-03-18T23:02:15.524Z,99.90
2019-03-18T23:04:44.386Z,99.90
2019-03-18T23:07:13.877Z,99.90
2019-03-18T23:09:42.969Z,99.90
2019-03-18T23:12:11.830Z,99.90
2019-03-18T23:14:40.937Z,99.90
2019-03-18T23:17:09.788Z,99.90
2019-03-18T23:19:39.281Z,99.90
2019-03-18T23:22:08.126Z,99.90
2019-03-18T23:24:37.012Z,99.90
2019-03-18T23:27:05.890Z,99.90
2019-03-18T23:29:34.724Z,99.90
2019-03-18T23:32:03.504Z,99.90
2019-03-18T23:34:32.261Z,99.90
2019-03-18T23:37:01.196Z,99.90
2019-03-18T23:39:30.121Z,99.90
2019-03-18T23:41:59.230Z,99.90
2019-03-18T23:44:28.564Z,99.90
2019-03-18T23:46:57.509Z,99.90
2019-03-18T23:49:26.311Z,99.90
2019-03-18T23:51:55.498Z,99.90
2019-03-18T23:54:24.270Z,99.90
2019-03-18T23:56:53.030Z,99.90
2019-03-18T23:59:22.339Z,99.90
